createdAt,value
2022-08-03T00:00:26.284Z,3.92
2022-08-03T00:02:53.078Z,3.60
2022-08-03T00:05:19.777Z,3.80
2022-08-03T00:07:46.254Z,4.70
2022-08-03T00:10:15.159Z,3.58
2022-08-03T00:12:41.769Z,3.70
2022-08-03T00:15:11.218Z,3.60
2022-08-03T00:17:52.295Z,3.67
2022-08-03T00:20:23.407Z,3.42
2022-08-03T00:22:50.625Z,3.97
2022-08-03T00:25:17.904Z,4.00
2022-08-03T00:27:44.419Z,3.50
2022-08-03T00:30:11.727Z,3.80
2022-08-03T00:32:41.387Z,3.70
2022-08-03T00:35:18.246Z,4.03
2022-08-03T00:37:59.338Z,3.80
2022-08-03T00:40:26.059Z,4.25
2022-08-03T00:43:00.617Z,4.10
2022-08-03T00:45:30.085Z,3.58
2022-08-03T00:47:57.298Z,4.10
2022-08-03T00:50:25.593Z,4.07
2022-08-03T00:52:54.140Z,3.47
2022-08-03T00:55:20.758Z,3.55
2022-08-03T00:57:48.191Z,3.42
2022-08-03T01:00:17.772Z,3.00
2022-08-03T01:02:44.561Z,3.20
2022-08-03T01:05:11.305Z,2.97
2022-08-03T01:07:40.551Z,3.05
2022-08-03T01:10:16.256Z,2.92
2022-08-03T01:12:46.140Z,2.80
2022-08-03T01:15:21.759Z,2.85
2022-08-03T01:18:09.846Z,3.38
2022-08-03T01:20:40.463Z,3.42
2022-08-03T01:23:28.926Z,3.00
2022-08-03T01:26:19.916Z,2.85
2022-08-03T01:29:15.754Z,3.33
2022-08-03T01:32:58.850Z,3.17
2022-08-03T01:34:45.499Z,3.08
2022-08-03T01:37:16.375Z,3.65
2022-08-03T01:39:45.424Z,3.45
2022-08-03T01:42:14.334Z,3.00
2022-08-03T01:44:43.139Z,2.67
2022-08-03T01:47:12.030Z,3.28
2022-08-03T01:49:45.251Z,2.53
2022-08-03T01:52:17.293Z,2.80
2022-08-03T01:54:46.693Z,2.55
2022-08-03T01:57:15.130Z,3.22
2022-08-03T01:59:43.103Z,3.42
2022-08-03T02:02:28.293Z,3.17
2022-08-03T02:05:01.776Z,2.92
2022-08-03T02:07:30.259Z,2.67
2022-08-03T02:09:58.502Z,3.20
2022-08-03T02:12:26.791Z,3.25
2022-08-03T02:14:56.487Z,3.35
2022-08-03T02:17:38.768Z,3.25
2022-08-03T02:20:08.558Z,3.20
2022-08-03T02:22:36.783Z,3.40
2022-08-03T02:25:03.697Z,3.58
2022-08-03T02:27:33.079Z,3.10
2022-08-03T02:30:08.626Z,3.10
2022-08-03T02:32:37.834Z,2.88
2022-08-03T02:35:09.547Z,3.08
2022-08-03T02:37:45.095Z,3.03
2022-08-03T02:40:19.081Z,3.55
2022-08-03T02:42:47.259Z,3.08
2022-08-03T02:45:16.723Z,3.20
2022-08-03T02:47:54.373Z,3.58
2022-08-03T02:50:24.146Z,2.92
2022-08-03T02:52:51.948Z,3.05
2022-08-03T02:55:21.748Z,2.92
2022-08-03T02:57:49.937Z,2.78
2022-08-03T03:00:19.500Z,3.38
2022-08-03T03:02:58.732Z,3.22
2022-08-03T03:05:56.042Z,3.28
2022-08-03T03:08:18.025Z,3.00
2022-08-03T03:10:48.205Z,2.70
2022-08-03T03:13:16.060Z,3.38
2022-08-03T03:15:44.115Z,3.15
2022-08-03T03:18:11.410Z,2.90
2022-08-03T03:20:40.871Z,2.92
2022-08-03T03:23:09.195Z,2.97
2022-08-03T03:25:36.219Z,3.30
2022-08-03T03:28:03.839Z,3.03
2022-08-03T03:30:33.558Z,3.15
2022-08-03T03:33:00.223Z,2.83
2022-08-03T03:35:27.913Z,2.90
2022-08-03T03:37:54.649Z,3.78
2022-08-03T03:40:22.456Z,3.05
2022-08-03T03:42:50.033Z,2.78
2022-08-03T03:45:17.042Z,2.95
2022-08-03T03:47:43.659Z,2.67
2022-08-03T03:50:10.983Z,3.33
2022-08-03T03:52:37.677Z,2.90
2022-08-03T03:55:04.507Z,3.22
2022-08-03T03:57:31.091Z,3.00
2022-08-03T03:59:57.804Z,2.90
2022-08-03T04:02:24.421Z,2.97
2022-08-03T04:05:09.854Z,3.30
2022-08-03T04:08:14.481Z,3.50
2022-08-03T04:10:58.806Z,3.88
2022-08-03T04:13:30.044Z,3.60
2022-08-03T04:15:58.487Z,3.60
2022-08-03T04:18:27.951Z,3.63
2022-08-03T04:20:59.313Z,3.15
2022-08-03T04:23:28.803Z,3.70
2022-08-03T04:25:57.964Z,4.10
2022-08-03T04:28:31.387Z,3.60
2022-08-03T04:31:01.029Z,3.63
2022-08-03T04:33:32.446Z,4.03
2022-08-03T04:38:38.936Z,4.37
2022-08-03T04:41:06.578Z,4.13
2022-08-03T04:43:34.223Z,4.75
2022-08-03T04:46:02.566Z,4.15
2022-08-03T04:48:29.355Z,4.20
2022-08-03T04:50:55.971Z,4.43
2022-08-03T04:53:22.645Z,4.63
2022-08-03T04:55:49.822Z,4.97
2022-08-03T04:58:16.323Z,5.28
2022-08-03T05:00:43.209Z,4.93
2022-08-03T05:03:23.652Z,5.07
2022-08-03T05:06:01.658Z,5.57
2022-08-03T05:08:46.190Z,5.28
2022-08-03T05:11:15.214Z,5.13
2022-08-03T05:13:41.822Z,5.15
2022-08-03T05:16:08.400Z,4.28
2022-08-03T05:18:35.961Z,5.57
2022-08-03T05:21:02.738Z,4.80
2022-08-03T05:23:29.493Z,4.97
2022-08-03T05:25:56.090Z,4.95
2022-08-03T05:28:23.031Z,5.07
2022-08-03T05:30:49.585Z,4.65
2022-08-03T05:33:16.112Z,5.45
2022-08-03T05:35:57.366Z,4.90
2022-08-03T05:38:34.399Z,4.25
2022-08-03T05:41:21.325Z,4.93
2022-08-03T05:43:49.765Z,4.68
2022-08-03T05:46:16.339Z,4.63
2022-08-03T05:48:43.020Z,4.82
2022-08-03T05:51:11.685Z,4.47
2022-08-03T05:53:39.656Z,4.30
2022-08-03T05:56:13.746Z,4.47
2022-08-03T05:58:43.896Z,4.43
2022-08-03T06:01:10.497Z,4.20
2022-08-03T06:03:37.049Z,3.63
2022-08-03T06:06:03.686Z,2.90
2022-08-03T06:08:30.345Z,3.53
2022-08-03T06:10:56.878Z,2.92
2022-08-03T06:13:23.404Z,3.10
2022-08-03T06:15:49.954Z,3.00
2022-08-03T06:18:16.465Z,3.00
2022-08-03T06:20:43.338Z,3.05
2022-08-03T06:23:16.199Z,3.13
2022-08-03T06:25:44.598Z,3.17
2022-08-03T06:28:35.329Z,3.33
2022-08-03T06:30:59.033Z,2.80
2022-08-03T06:33:26.532Z,2.72
2022-08-03T06:36:13.066Z,3.30
2022-08-03T06:38:39.607Z,3.10
2022-08-03T06:41:06.135Z,2.88
2022-08-03T06:43:35.994Z,2.92
2022-08-03T06:46:02.674Z,2.72
2022-08-03T06:48:29.192Z,3.10
2022-08-03T06:50:55.740Z,3.08
2022-08-03T06:53:22.630Z,2.95
2022-08-03T06:55:54.187Z,3.22
2022-08-03T06:58:21.288Z,2.97
2022-08-03T07:00:48.075Z,3.58
2022-08-03T07:03:15.138Z,3.05
2022-08-03T07:05:43.547Z,3.60
2022-08-03T07:08:10.276Z,3.20
2022-08-03T07:10:37.200Z,2.92
2022-08-03T07:13:04.834Z,3.20
2022-08-03T07:15:54.600Z,2.78
2022-08-03T07:18:29.087Z,3.10
2022-08-03T07:20:57.528Z,3.30
2022-08-03T07:23:24.196Z,3.35
2022-08-03T07:25:50.957Z,3.35
2022-08-03T07:28:17.767Z,3.60
2022-08-03T07:30:44.408Z,3.33
2022-08-03T07:33:11.145Z,3.17
2022-08-03T07:35:37.791Z,3.20
2022-08-03T07:38:04.305Z,3.15
2022-08-03T07:40:31.880Z,3.38
2022-08-03T07:42:59.836Z,3.25
2022-08-03T07:45:26.910Z,3.10
2022-08-03T07:47:54.366Z,3.45
2022-08-03T07:50:21.777Z,3.15
2022-08-03T07:52:49.693Z,3.08
2022-08-03T07:55:17.844Z,3.13
2022-08-03T07:57:44.851Z,3.33
2022-08-03T08:00:19.227Z,2.70
2022-08-03T08:02:46.000Z,3.38
2022-08-03T08:05:13.115Z,2.65
2022-08-03T08:07:40.369Z,3.20
2022-08-03T08:10:09.991Z,2.70
2022-08-03T08:12:38.622Z,3.40
2022-08-03T08:15:05.944Z,3.95
2022-08-03T08:17:41.943Z,3.72
2022-08-03T08:20:09.488Z,2.70
2022-08-03T08:22:35.999Z,2.80
2022-08-03T08:25:04.409Z,3.88
2022-08-03T08:28:22.220Z,3.08
2022-08-03T08:30:20.179Z,3.00
2022-08-03T08:32:47.722Z,2.95
2022-08-03T08:35:14.748Z,4.00
2022-08-03T08:37:41.685Z,3.20
2022-08-03T08:40:09.415Z,3.10
2022-08-03T08:42:57.587Z,2.63
2022-08-03T08:45:25.259Z,2.53
2022-08-03T08:47:55.678Z,2.88
2022-08-03T08:50:27.690Z,2.60
2022-08-03T08:52:55.232Z,3.35
2022-08-03T08:55:23.388Z,2.80
2022-08-03T08:57:53.098Z,2.53
2022-08-03T09:00:19.670Z,2.50
2022-08-03T09:02:46.983Z,2.55
2022-08-03T09:05:15.505Z,2.90
2022-08-03T09:07:43.401Z,2.53
2022-08-03T09:10:14.855Z,2.63
2022-08-03T09:12:47.102Z,2.60
2022-08-03T09:15:17.828Z,3.00
2022-08-03T09:17:47.660Z,2.90
2022-08-03T09:20:17.636Z,2.70
2022-08-03T09:23:19.139Z,3.20
2022-08-03T09:25:59.838Z,2.50
2022-08-03T09:28:56.556Z,2.50
2022-08-03T09:31:33.123Z,3.00
2022-08-03T09:34:05.090Z,2.67
2022-08-03T09:36:39.100Z,2.83
2022-08-03T09:39:11.887Z,2.60
2022-08-03T09:41:40.383Z,2.90
2022-08-03T09:44:08.326Z,3.13
2022-08-03T09:46:52.375Z,2.88
2022-08-03T09:49:19.054Z,2.92
2022-08-03T09:52:32.823Z,2.60
2022-08-03T09:54:32.812Z,2.20
2022-08-03T09:56:59.506Z,2.88
2022-08-03T09:59:28.716Z,3.15
2022-08-03T10:01:56.493Z,2.60
2022-08-03T10:04:23.889Z,2.97
2022-08-03T10:07:10.784Z,2.38
2022-08-03T10:09:38.178Z,2.30
2022-08-03T10:12:09.680Z,2.30
2022-08-03T10:14:38.789Z,1.83
2022-08-03T10:17:06.022Z,2.20
2022-08-03T10:19:33.713Z,4.47
2022-08-03T10:22:07.886Z,4.78
2022-08-03T10:24:36.233Z,2.63
2022-08-03T10:27:14.785Z,2.00
2022-08-03T10:29:45.943Z,2.50
2022-08-03T10:32:42.430Z,2.30
2022-08-03T10:35:21.019Z,2.35
2022-08-03T10:38:16.702Z,2.65
2022-08-03T10:40:49.343Z,4.18
2022-08-03T10:43:23.038Z,2.70
2022-08-03T10:45:50.437Z,2.50
2022-08-03T10:48:18.067Z,2.58
2022-08-03T10:50:45.366Z,2.28
2022-08-03T10:53:11.962Z,2.33
2022-08-03T10:56:02.261Z,2.67
2022-08-03T10:58:53.445Z,2.28
2022-08-03T11:01:59.839Z,2.08
2022-08-03T11:04:27.191Z,2.20
2022-08-03T11:07:16.128Z,1.95
2022-08-03T11:09:48.496Z,2.20
2022-08-03T11:12:32.765Z,2.15
2022-08-03T11:15:05.682Z,2.40
2022-08-03T11:17:33.962Z,2.00
2022-08-03T11:23:01.009Z,1.92
2022-08-03T11:25:55.125Z,2.10
2022-08-03T11:28:31.466Z,1.95
2022-08-03T11:31:48.531Z,1.90
2022-08-03T11:34:14.064Z,2.03
2022-08-03T11:37:18.996Z,2.00
2022-08-03T11:39:47.541Z,2.10
2022-08-03T11:42:23.502Z,2.00
2022-08-03T11:44:51.032Z,1.80
2022-08-03T11:47:18.674Z,2.63
2022-08-03T11:49:51.082Z,1.95
2022-08-03T11:54:44.981Z,2.00
2022-08-03T11:57:11.900Z,2.38
2022-08-03T11:59:38.747Z,2.40
2022-08-03T12:02:11.100Z,1.92
2022-08-03T12:05:10.008Z,2.08
2022-08-03T12:08:03.032Z,2.13
2022-08-03T12:10:33.433Z,2.10
2022-08-03T12:13:01.851Z,2.30
2022-08-03T12:15:30.199Z,1.98
2022-08-03T12:17:58.203Z,2.38
2022-08-03T12:20:34.828Z,1.92
2022-08-03T12:23:06.733Z,2.00
2022-08-03T12:25:39.265Z,2.08
2022-08-03T12:28:37.082Z,1.90
2022-08-03T12:31:09.597Z,1.73
2022-08-03T12:33:55.504Z,2.50
2022-08-03T12:36:22.167Z,2.40
2022-08-03T12:38:56.788Z,2.20
2022-08-03T12:41:52.808Z,2.22
2022-08-03T12:44:30.346Z,2.00
2022-08-03T12:47:01.110Z,2.17
2022-08-03T12:49:30.508Z,1.60
2022-08-03T12:52:04.083Z,1.95
2022-08-03T12:54:35.952Z,1.70
2022-08-03T12:57:05.520Z,2.00
2022-08-03T12:59:45.108Z,2.25
2022-08-03T13:02:24.748Z,1.95
2022-08-03T13:04:53.112Z,2.05
2022-08-03T13:07:21.129Z,1.95
2022-08-03T13:09:53.707Z,2.40
2022-08-03T13:12:25.466Z,2.35
2022-08-03T13:14:57.271Z,2.25
2022-08-03T13:17:24.295Z,2.20
2022-08-03T13:19:51.717Z,1.98
2022-08-03T13:22:24.869Z,2.10
2022-08-03T13:24:57.466Z,2.40
2022-08-03T13:28:03.388Z,2.35
2022-08-03T13:30:17.891Z,2.38
2022-08-03T13:32:58.625Z,2.22
2022-08-03T13:35:25.572Z,2.65
2022-08-03T13:37:52.137Z,2.22
2022-08-03T13:40:18.740Z,2.63
2022-08-03T13:42:50.262Z,2.42
2022-08-03T13:45:16.861Z,2.10
2022-08-03T13:47:43.343Z,2.10
2022-08-03T13:50:09.904Z,2.05
2022-08-03T13:52:37.755Z,2.10
2022-08-03T13:55:06.066Z,2.20
2022-08-03T13:58:03.905Z,2.10
2022-08-03T14:00:27.383Z,1.95
2022-08-03T14:03:06.464Z,2.40
2022-08-03T14:05:38.193Z,2.30
2022-08-03T14:08:06.844Z,2.35
2022-08-03T14:10:38.384Z,2.08
2022-08-03T14:13:05.999Z,2.00
2022-08-03T14:15:38.273Z,1.85
2022-08-03T14:18:06.879Z,2.08
2022-08-03T14:20:38.898Z,2.40
2022-08-03T14:23:15.707Z,2.00
2022-08-03T14:25:49.963Z,2.30
2022-08-03T14:28:18.587Z,1.75
2022-08-03T14:30:45.517Z,1.92
2022-08-03T14:33:12.022Z,1.70
2022-08-03T14:35:38.653Z,1.90
2022-08-03T14:38:05.199Z,2.10
2022-08-03T14:40:32.261Z,1.73
2022-08-03T14:42:58.911Z,2.15
2022-08-03T14:45:25.418Z,2.00
2022-08-03T14:50:31.856Z,2.00
2022-08-03T14:50:43.134Z,1.98
2022-08-03T14:53:12.164Z,2.28
2022-08-03T14:55:50.670Z,1.92
2022-08-03T14:58:20.933Z,2.17
2022-08-03T15:00:49.925Z,1.70
2022-08-03T15:03:17.613Z,1.98
2022-08-03T15:05:44.793Z,1.60
2022-08-03T15:08:11.340Z,1.55
2022-08-03T15:10:44.154Z,1.90
2022-08-03T15:13:13.125Z,1.60
2022-08-03T15:15:40.187Z,1.67
2022-08-03T15:18:06.992Z,1.98
2022-08-03T15:20:43.976Z,2.00
2022-08-03T15:23:12.606Z,1.73
2022-08-03T15:26:28.008Z,1.88
2022-08-03T15:28:25.770Z,1.70
2022-08-03T15:30:53.058Z,1.90
2022-08-03T15:33:20.155Z,1.95
2022-08-03T15:35:47.611Z,2.00
2022-08-03T15:38:14.296Z,2.17
2022-08-03T15:40:41.027Z,2.20
2022-08-03T15:43:07.675Z,1.63
2022-08-03T15:45:36.402Z,2.05
2022-08-03T15:48:06.928Z,1.73
2022-08-03T15:50:33.575Z,2.00
2022-08-03T15:53:00.180Z,1.85
2022-08-03T15:55:27.199Z,1.88
2022-08-03T15:59:03.690Z,2.00
2022-08-03T16:00:41.903Z,2.10
2022-08-03T16:03:09.069Z,1.83
2022-08-03T16:05:36.174Z,2.00
2022-08-03T16:08:05.050Z,1.80
2022-08-03T16:10:33.597Z,1.65
2022-08-03T16:13:00.447Z,2.25
2022-08-03T16:15:27.706Z,2.22
2022-08-03T16:17:54.354Z,1.90
2022-08-03T16:20:30.914Z,2.08
2022-08-03T16:23:10.470Z,2.00
2022-08-03T16:25:38.285Z,1.95
2022-08-03T16:28:07.788Z,1.98
2022-08-03T16:30:39.786Z,1.83
2022-08-03T16:33:06.288Z,2.15
2022-08-03T16:35:32.912Z,2.08
2022-08-03T16:37:59.551Z,1.80
2022-08-03T16:40:26.627Z,2.05
2022-08-03T16:42:53.329Z,1.90
2022-08-03T16:45:20.100Z,2.00
2022-08-03T16:47:46.643Z,2.08
2022-08-03T16:50:19.454Z,2.35
2022-08-03T16:52:48.344Z,2.30
2022-08-03T16:55:15.993Z,2.17
2022-08-03T16:58:02.994Z,1.80
2022-08-03T17:00:33.311Z,2.15
2022-08-03T17:03:04.404Z,2.22
2022-08-03T17:05:47.048Z,2.05
2022-08-03T17:08:14.170Z,1.80
2022-08-03T17:10:45.560Z,1.77
2022-08-03T17:13:22.056Z,2.30
2022-08-03T17:16:01.062Z,2.10
2022-08-03T17:18:34.055Z,2.20
2022-08-03T17:21:05.066Z,2.05
2022-08-03T17:23:37.407Z,2.33
2022-08-03T17:26:10.554Z,2.00
2022-08-03T17:28:51.806Z,2.20
2022-08-03T17:31:30.807Z,1.70
2022-08-03T17:34:04.530Z,1.77
2022-08-03T17:37:02.163Z,1.92
2022-08-03T17:39:35.771Z,2.20
2022-08-03T17:42:31.267Z,1.60
2022-08-03T17:44:57.551Z,1.80
2022-08-03T17:47:29.346Z,2.00
2022-08-03T17:50:23.344Z,2.00
2022-08-03T17:52:58.327Z,2.03
2022-08-03T17:55:54.916Z,1.80
2022-08-03T17:58:25.350Z,1.95
2022-08-03T18:01:59.226Z,1.73
2022-08-03T18:04:10.803Z,1.77
2022-08-03T18:06:56.161Z,1.60
2022-08-03T18:10:03.526Z,1.63
2022-08-03T18:12:25.068Z,1.88
2022-08-03T18:15:01.444Z,2.10
2022-08-03T18:17:58.174Z,1.90
2022-08-03T18:20:32.306Z,1.63
2022-08-03T18:23:04.826Z,1.70
2022-08-03T18:25:44.917Z,1.77
2022-08-03T18:28:18.636Z,1.80
2022-08-03T18:30:53.451Z,1.90
2022-08-03T18:34:17.195Z,1.80
2022-08-03T18:36:21.685Z,2.15
2022-08-03T18:38:51.801Z,2.00
2022-08-03T18:41:32.293Z,2.53
2022-08-03T18:44:07.982Z,2.03
2022-08-03T18:46:41.009Z,1.85
2022-08-03T18:49:18.783Z,1.73
2022-08-03T18:51:46.648Z,2.20
2022-08-03T18:54:45.882Z,1.90
2022-08-03T18:57:30.432Z,2.83
2022-08-03T19:00:42.426Z,2.50
2022-08-03T19:03:20.253Z,2.28
2022-08-03T19:06:03.019Z,2.42
2022-08-03T19:08:49.730Z,2.30
2022-08-03T19:12:13.982Z,2.65
2022-08-03T19:14:28.776Z,2.20
2022-08-03T19:17:08.651Z,3.08
2022-08-03T19:19:44.453Z,2.80
2022-08-03T19:22:15.893Z,2.85
2022-08-03T19:24:45.900Z,2.40
2022-08-03T19:27:13.596Z,2.90
2022-08-03T19:29:57.993Z,2.70
2022-08-03T19:32:31.844Z,2.50
2022-08-03T19:37:38.006Z,2.20
2022-08-03T19:40:12.398Z,2.67
2022-08-03T19:42:44.184Z,2.47
2022-08-03T19:45:15.527Z,2.47
2022-08-03T19:47:52.958Z,2.58
2022-08-03T19:50:20.536Z,2.95
2022-08-03T19:52:48.549Z,2.30
2022-08-03T19:55:17.568Z,2.60
2022-08-03T19:57:49.270Z,2.30
2022-08-03T20:00:19.536Z,2.75
2022-08-03T20:02:46.499Z,2.75
2022-08-03T20:05:15.296Z,2.38
2022-08-03T20:07:47.496Z,2.30
2022-08-03T20:10:15.984Z,3.13
2022-08-03T20:12:44.488Z,2.70
2022-08-03T20:15:12.004Z,2.47
2022-08-03T20:17:54.498Z,2.40
2022-08-03T20:20:25.891Z,2.80
2022-08-03T20:22:57.586Z,2.22
2022-08-03T20:25:38.681Z,2.60
2022-08-03T20:28:33.331Z,2.70
2022-08-03T20:36:17.869Z,2.60
2022-08-03T20:38:47.398Z,2.78
2022-08-03T20:41:15.740Z,3.15
2022-08-03T20:43:42.518Z,3.08
2022-08-03T20:46:29.535Z,2.88
2022-08-03T20:48:59.584Z,2.60
2022-08-03T20:51:50.263Z,2.97
2022-08-03T20:54:22.783Z,2.67
2022-08-03T20:56:58.450Z,2.85
2022-08-03T20:59:36.578Z,2.90
2022-08-03T21:02:19.585Z,3.03
2022-08-03T21:04:55.951Z,3.20
2022-08-03T21:07:24.276Z,3.25
2022-08-03T21:09:55.679Z,3.58
2022-08-03T21:12:33.066Z,3.30
2022-08-03T21:13:07.169Z,2.95
2022-08-03T21:15:04.018Z,3.25
2022-08-03T21:17:40.639Z,3.42
2022-08-03T21:20:10.217Z,3.10
2022-08-03T21:22:43.721Z,3.17
2022-08-03T21:25:13.548Z,2.90
2022-08-03T21:27:40.715Z,3.63
2022-08-03T21:30:10.290Z,3.85
2022-08-03T21:32:40.350Z,3.33
2022-08-03T21:35:11.295Z,3.20
2022-08-03T21:37:39.789Z,3.20
2022-08-03T21:40:08.417Z,3.85
2022-08-03T21:42:34.981Z,3.90
2022-08-03T21:45:06.066Z,3.75
2022-08-03T21:47:37.038Z,3.63
2022-08-03T21:50:09.837Z,3.55
2022-08-03T21:52:42.435Z,3.17
2022-08-03T21:55:18.354Z,3.53
2022-08-03T21:57:52.842Z,3.40
2022-08-03T22:00:21.602Z,3.35
2022-08-03T22:02:54.448Z,3.63
2022-08-03T22:05:28.131Z,3.75
2022-08-03T22:08:09.735Z,3.30
2022-08-03T22:10:36.876Z,3.42
2022-08-03T22:13:03.502Z,4.43
2022-08-03T22:15:30.984Z,3.75
2022-08-03T22:17:59.063Z,3.50
2022-08-03T22:20:25.843Z,3.25
2022-08-03T22:23:01.627Z,3.42
2022-08-03T22:25:31.108Z,4.07
2022-08-03T22:28:02.926Z,3.80
2022-08-03T22:30:29.898Z,3.20
2022-08-03T22:32:57.908Z,3.80
2022-08-03T22:35:26.239Z,3.35
2022-08-03T22:37:55.175Z,3.30
2022-08-03T22:40:22.182Z,3.00
2022-08-03T22:42:52.645Z,2.90
2022-08-03T22:46:06.980Z,3.43
2022-08-03T22:48:08.006Z,3.50
2022-08-03T22:50:34.915Z,3.45
2022-08-03T22:53:01.643Z,3.08
2022-08-03T22:55:28.332Z,3.83
2022-08-03T22:57:55.995Z,2.60
2022-08-03T23:00:23.449Z,3.38
2022-08-03T23:02:51.772Z,2.90
2022-08-03T23:06:01.826Z,2.90
2022-08-03T23:08:14.684Z,3.05
2022-08-03T23:10:46.788Z,2.90
2022-08-03T23:13:16.427Z,3.55
2022-08-03T23:15:47.491Z,3.40
2022-08-03T23:18:15.162Z,3.65
2022-08-03T23:20:42.526Z,3.45
2022-08-03T23:23:11.299Z,3.40
2022-08-03T23:25:41.474Z,3.00
2022-08-03T23:28:09.092Z,2.85
2022-08-03T23:30:37.343Z,2.60
2022-08-03T23:33:04.334Z,2.97
2022-08-03T23:36:28.660Z,2.97
2022-08-03T23:38:37.189Z,2.45
2022-08-03T23:41:04.851Z,2.80
2022-08-03T23:43:47.656Z,2.58
2022-08-03T23:46:20.726Z,2.90
2022-08-03T23:48:47.228Z,2.78
2022-08-03T23:51:29.556Z,2.63
2022-08-03T23:54:06.549Z,2.80
2022-08-03T23:56:43.544Z,2.50
2022-08-03T23:59:48.641Z,2.67
